sensor_id;sensor_type;location;lat;lon;timestamp;pressure;altitude;pressure_sealevel;temperature;humidity
52983;BME280;48698;45.736;13.926;2022-11-03T00:01:47;98302.03;;;13.12;100.00
52983;BME280;48698;45.736;13.926;2022-11-03T00:06:53;98284.41;;;13.08;100.00
52983;BME280;48698;45.736;13.926;2022-11-03T00:11:56;98315.50;;;13.43;100.00
52983;BME280;48698;45.736;13.926;2022-11-03T00:17:00;98299.75;;;13.22;100.00
52983;BME280;48698;45.736;13.926;2022-11-03T00:22:04;98315.06;;;12.82;100.00
52983;BME280;48698;45.736;13.926;2022-11-03T00:27:16;98240.47;;;12.28;100.00
52983;BME280;48698;45.736;13.926;2022-11-03T00:32:19;98317.22;;;12.74;100.00
52983;BME280;48698;45.736;13.926;2022-11-03T00:37:23;98254.28;;;12.36;100.00
52983;BME280;48698;45.736;13.926;2022-11-03T00:42:27;98295.97;;;12.73;100.00
52983;BME280;48698;45.736;13.926;2022-11-03T00:47:30;98295.22;;;12.52;100.00
52983;BME280;48698;45.736;13.926;2022-11-03T00:52:33;98317.38;;;12.71;100.00
52983;BME280;48698;45.736;13.926;2022-11-03T00:57:37;98293.38;;;12.71;100.00
52983;BME280;48698;45.736;13.926;2022-11-03T01:02:40;98302.31;;;12.70;100.00
52983;BME280;48698;45.736;13.926;2022-11-03T01:07:44;98351.34;;;12.85;100.00
52983;BME280;48698;45.736;13.926;2022-11-03T01:12:48;98259.69;;;12.34;100.00
52983;BME280;48698;45.736;13.926;2022-11-03T01:17:52;98331.25;;;12.78;100.00
52983;BME280;48698;45.736;13.926;2022-11-03T01:22:55;98238.41;;;12.52;100.00
52983;BME280;48698;45.736;13.926;2022-11-03T01:28:01;98322.13;;;13.01;100.00
52983;BME280;48698;45.736;13.926;2022-11-03T01:33:05;98288.16;;;12.87;100.00
52983;BME280;48698;45.736;13.926;2022-11-03T01:38:10;98269.31;;;13.09;100.00
52983;BME280;48698;45.736;13.926;2022-11-03T01:43:21;98277.69;;;13.35;100.00
52983;BME280;48698;45.736;13.926;2022-11-03T01:48:26;98213.75;;;13.17;100.00
52983;BME280;48698;45.736;13.926;2022-11-03T01:53:30;98170.69;;;13.07;100.00
52983;BME280;48698;45.736;13.926;2022-11-03T01:58:36;98096.19;;;12.71;100.00
52983;BME280;48698;45.736;13.926;2022-11-03T02:03:46;98184.44;;;13.32;100.00
52983;BME280;48698;45.736;13.926;2022-11-03T02:08:57;98212.59;;;13.55;100.00
52983;BME280;48698;45.736;13.926;2022-11-03T02:14:02;98223.97;;;13.59;100.00
52983;BME280;48698;45.736;13.926;2022-11-03T02:19:13;98110.16;;;12.59;100.00
52983;BME280;48698;45.736;13.926;2022-11-03T02:24:50;98241.78;;;13.25;100.00
52983;BME280;48698;45.736;13.926;2022-11-03T02:29:56;98224.88;;;13.08;100.00
52983;BME280;48698;45.736;13.926;2022-11-03T02:35:06;98228.88;;;12.82;100.00
52983;BME280;48698;45.736;13.926;2022-11-03T02:40:16;98254.28;;;12.89;100.00
52983;BME280;48698;45.736;13.926;2022-11-03T02:45:24;98189.66;;;12.50;100.00
52983;BME280;48698;45.736;13.926;2022-11-03T02:50:30;98185.31;;;12.66;100.00
52983;BME280;48698;45.736;13.926;2022-11-03T02:55:37;98172.34;;;12.58;100.00
52983;BME280;48698;45.736;13.926;2022-11-03T03:06:31;98219.69;;;12.70;100.00
52983;BME280;48698;45.736;13.926;2022-11-03T03:11:40;98172.00;;;12.30;100.00
52983;BME280;48698;45.736;13.926;2022-11-03T03:16:52;98189.53;;;12.53;100.00
52983;BME280;48698;45.736;13.926;2022-11-03T03:22:10;98170.72;;;12.20;100.00
52983;BME280;48698;45.736;13.926;2022-11-03T03:27:22;98255.06;;;12.74;100.00
52983;BME280;48698;45.736;13.926;2022-11-03T03:32:30;98178.53;;;12.41;100.00
52983;BME280;48698;45.736;13.926;2022-11-03T03:37:37;98239.38;;;12.85;100.00
52983;BME280;48698;45.736;13.926;2022-11-03T03:42:42;98154.94;;;12.34;100.00
52983;BME280;48698;45.736;13.926;2022-11-03T03:47:49;98126.31;;;12.20;100.00
52983;BME280;48698;45.736;13.926;2022-11-03T03:53:02;98134.34;;;12.37;100.00
52983;BME280;48698;45.736;13.926;2022-11-03T03:58:07;98240.00;;;12.73;100.00
52983;BME280;48698;45.736;13.926;2022-11-03T04:03:23;98143.53;;;12.13;100.00
52983;BME280;48698;45.736;13.926;2022-11-03T04:08:27;98166.63;;;12.31;100.00
52983;BME280;48698;45.736;13.926;2022-11-03T04:13:32;98189.16;;;12.24;100.00
52983;BME280;48698;45.736;13.926;2022-11-03T04:18:54;98197.72;;;12.31;100.00
52983;BME280;48698;45.736;13.926;2022-11-03T04:24:17;98187.66;;;12.19;100.00
52983;BME280;48698;45.736;13.926;2022-11-03T04:29:20;98150.03;;;11.72;100.00
52983;BME280;48698;45.736;13.926;2022-11-03T04:34:24;98207.69;;;12.09;100.00
52983;BME280;48698;45.736;13.926;2022-11-03T04:39:27;98132.38;;;11.69;100.00
52983;BME280;48698;45.736;13.926;2022-11-03T04:44:31;98081.25;;;11.44;100.00
52983;BME280;48698;45.736;13.926;2022-11-03T04:49:35;98103.91;;;11.15;100.00
52983;BME280;48698;45.736;13.926;2022-11-03T04:54:38;98078.34;;;11.13;100.00
52983;BME280;48698;45.736;13.926;2022-11-03T04:59:45;98202.16;;;11.76;100.00
52983;BME280;48698;45.736;13.926;2022-11-03T05:04:49;98153.94;;;11.45;100.00
52983;BME280;48698;45.736;13.926;2022-11-03T05:09:53;98202.53;;;11.67;100.00
52983;BME280;48698;45.736;13.926;2022-11-03T05:14:57;98148.78;;;11.41;100.00
52983;BME280;48698;45.736;13.926;2022-11-03T05:20:01;98194.75;;;11.82;100.00
52983;BME280;48698;45.736;13.926;2022-11-03T05:30:43;98110.59;;;11.24;100.00
52983;BME280;48698;45.736;13.926;2022-11-03T05:35:48;98058.53;;;11.20;100.00
52983;BME280;48698;45.736;13.926;2022-11-03T05:40:53;98201.44;;;12.27;100.00
52983;BME280;48698;45.736;13.926;2022-11-03T05:45:58;98048.06;;;11.34;100.00
52983;BME280;48698;45.736;13.926;2022-11-03T05:51:17;98166.47;;;11.99;100.00
52983;BME280;48698;45.736;13.926;2022-11-03T05:56:23;98143.69;;;11.93;100.00
52983;BME280;48698;45.736;13.926;2022-11-03T06:01:33;98200.59;;;12.26;100.00
52983;BME280;48698;45.736;13.926;2022-11-03T06:06:37;98212.25;;;12.24;100.00
52983;BME280;48698;45.736;13.926;2022-11-03T06:11:41;98194.69;;;12.20;100.00
52983;BME280;48698;45.736;13.926;2022-11-03T06:16:48;98103.63;;;11.77;100.00
52983;BME280;48698;45.736;13.926;2022-11-03T06:21:59;98083.78;;;11.66;100.00
52983;BME280;48698;45.736;13.926;2022-11-03T06:32:34;98148.66;;;12.18;100.00
52983;BME280;48698;45.736;13.926;2022-11-03T06:37:37;98120.25;;;11.82;100.00
52983;BME280;48698;45.736;13.926;2022-11-03T06:42:41;98129.22;;;11.99;100.00
52983;BME280;48698;45.736;13.926;2022-11-03T06:47:46;98083.25;;;11.95;100.00
52983;BME280;48698;45.736;13.926;2022-11-03T06:52:50;98221.13;;;12.94;100.00
52983;BME280;48698;45.736;13.926;2022-11-03T06:58:01;98169.69;;;12.58;100.00
52983;BME280;48698;45.736;13.926;2022-11-03T07:03:26;98231.31;;;12.86;100.00
52983;BME280;48698;45.736;13.926;2022-11-03T07:08:36;98232.09;;;13.06;100.00
52983;BME280;48698;45.736;13.926;2022-11-03T07:13:42;98115.22;;;12.47;100.00
52983;BME280;48698;45.736;13.926;2022-11-03T07:18:45;98215.72;;;13.13;100.00
52983;BME280;48698;45.736;13.926;2022-11-03T07:23:50;98145.22;;;12.84;100.00
52983;BME280;48698;45.736;13.926;2022-11-03T07:28:54;98222.22;;;13.42;100.00
52983;BME280;48698;45.736;13.926;2022-11-03T07:33:58;98157.69;;;13.18;100.00
52983;BME280;48698;45.736;13.926;2022-11-03T07:39:01;98080.72;;;12.78;100.00
52983;BME280;48698;45.736;13.926;2022-11-03T07:44:13;98036.72;;;12.86;100.00
52983;BME280;48698;45.736;13.926;2022-11-03T07:49:28;98190.69;;;13.81;100.00
52983;BME280;48698;45.736;13.926;2022-11-03T07:54:33;98055.88;;;13.10;100.00
52983;BME280;48698;45.736;13.926;2022-11-03T07:59:40;98140.97;;;13.63;100.00
52983;BME280;48698;45.736;13.926;2022-11-03T08:04:44;98007.31;;;13.04;100.00
52983;BME280;48698;45.736;13.926;2022-11-03T08:09:48;98138.38;;;13.93;100.00
52983;BME280;48698;45.736;13.926;2022-11-03T08:14:51;98130.28;;;14.10;100.00
52983;BME280;48698;45.736;13.926;2022-11-03T08:19:55;98124.16;;;14.24;100.00
52983;BME280;48698;45.736;13.926;2022-11-03T08:24:59;98158.88;;;14.69;100.00
52983;BME280;48698;45.736;13.926;2022-11-03T08:30:03;98118.69;;;14.71;100.00
52983;BME280;48698;45.736;13.926;2022-11-03T08:35:07;98113.47;;;15.12;100.00
52983;BME280;48698;45.736;13.926;2022-11-03T08:40:12;97944.78;;;14.30;100.00
52983;BME280;48698;45.736;13.926;2022-11-03T08:45:26;98100.34;;;15.51;100.00
52983;BME280;48698;45.736;13.926;2022-11-03T08:50:29;98078.22;;;15.47;100.00
52983;BME280;48698;45.736;13.926;2022-11-03T08:55:44;98115.22;;;15.69;100.00
52983;BME280;48698;45.736;13.926;2022-11-03T09:00:58;97936.72;;;14.60;100.00
52983;BME280;48698;45.736;13.926;2022-11-03T09:06:01;98101.09;;;15.53;100.00
52983;BME280;48698;45.736;13.926;2022-11-03T09:11:05;98104.13;;;15.61;100.00
52983;BME280;48698;45.736;13.926;2022-11-03T09:16:09;97960.66;;;14.89;100.00
52983;BME280;48698;45.736;13.926;2022-11-03T09:21:12;98085.69;;;15.57;100.00
52983;BME280;48698;45.736;13.926;2022-11-03T09:26:17;98098.00;;;15.45;100.00
52983;BME280;48698;45.736;13.926;2022-11-03T09:31:21;98112.44;;;15.71;100.00
52983;BME280;48698;45.736;13.926;2022-11-03T09:36:25;97915.06;;;14.50;100.00
52983;BME280;48698;45.736;13.926;2022-11-03T09:41:29;98097.75;;;15.90;100.00
52983;BME280;48698;45.736;13.926;2022-11-03T09:46:53;97991.91;;;15.44;100.00
52983;BME280;48698;45.736;13.926;2022-11-03T09:52:01;98078.16;;;16.17;100.00
52983;BME280;48698;45.736;13.926;2022-11-03T09:57:11;98077.25;;;16.43;100.00
52983;BME280;48698;45.736;13.926;2022-11-03T10:02:21;97962.09;;;15.77;100.00
52983;BME280;48698;45.736;13.926;2022-11-03T10:07:29;98033.78;;;16.25;100.00
52983;BME280;48698;45.736;13.926;2022-11-03T10:12:35;98009.66;;;16.13;100.00
52983;BME280;48698;45.736;13.926;2022-11-03T10:17:40;97875.34;;;15.26;100.00
52983;BME280;48698;45.736;13.926;2022-11-03T10:22:45;97998.63;;;16.30;100.00
52983;BME280;48698;45.736;13.926;2022-11-03T10:27:49;97867.91;;;15.70;100.00
52983;BME280;48698;45.736;13.926;2022-11-03T10:32:53;97891.41;;;15.92;100.00
52983;BME280;48698;45.736;13.926;2022-11-03T10:38:27;97984.09;;;16.59;100.00
52983;BME280;48698;45.736;13.926;2022-11-03T10:43:31;97842.44;;;16.15;100.00
52983;BME280;48698;45.736;13.926;2022-11-03T10:48:34;97982.03;;;17.00;100.00
52983;BME280;48698;45.736;13.926;2022-11-03T10:53:38;97804.69;;;16.31;100.00
52983;BME280;48698;45.736;13.926;2022-11-03T10:58:42;97883.16;;;16.71;100.00
52983;BME280;48698;45.736;13.926;2022-11-03T11:03:46;97982.41;;;17.32;100.00
52983;BME280;48698;45.736;13.926;2022-11-03T11:08:52;97966.63;;;17.28;100.00
52983;BME280;48698;45.736;13.926;2022-11-03T11:25:16;97924.81;;;18.07;100.00
52983;BME280;48698;45.736;13.926;2022-11-03T11:51:16;97846.13;;;17.60;100.00
52983;BME280;48698;45.736;13.926;2022-11-03T11:56:19;97888.66;;;18.12;100.00
52983;BME280;48698;45.736;13.926;2022-11-03T12:01:31;97878.16;;;18.08;100.00
52983;BME280;48698;45.736;13.926;2022-11-03T12:06:43;97857.22;;;18.01;100.00
52983;BME280;48698;45.736;13.926;2022-11-03T12:11:57;97833.44;;;17.38;100.00
52983;BME280;48698;45.736;13.926;2022-11-03T12:32:29;97752.03;;;17.02;100.00
52983;BME280;48698;45.736;13.926;2022-11-03T12:37:41;97789.69;;;17.25;100.00
52983;BME280;48698;45.736;13.926;2022-11-03T12:42:45;97824.53;;;17.61;100.00
52983;BME280;48698;45.736;13.926;2022-11-03T12:47:48;97687.31;;;16.36;100.00
52983;BME280;48698;45.736;13.926;2022-11-03T12:52:54;97750.72;;;16.84;100.00
52983;BME280;48698;45.736;13.926;2022-11-03T12:57:58;97831.03;;;17.46;100.00
52983;BME280;48698;45.736;13.926;2022-11-03T13:03:12;97837.53;;;17.31;100.00
52983;BME280;48698;45.736;13.926;2022-11-03T13:08:16;97804.91;;;16.89;100.00
52983;BME280;48698;45.736;13.926;2022-11-03T13:13:20;97813.84;;;16.77;100.00
52983;BME280;48698;45.736;13.926;2022-11-03T13:18:25;97766.59;;;16.51;100.00
52983;BME280;48698;45.736;13.926;2022-11-03T13:23:30;97817.88;;;16.59;100.00
52983;BME280;48698;45.736;13.926;2022-11-03T13:28:33;97756.19;;;15.97;100.00
52983;BME280;48698;45.736;13.926;2022-11-03T13:33:38;97562.88;;;14.80;100.00
52983;BME280;48698;45.736;13.926;2022-11-03T13:38:45;97835.44;;;16.38;100.00
52983;BME280;48698;45.736;13.926;2022-11-03T13:43:49;97633.81;;;15.11;100.00
52983;BME280;48698;45.736;13.926;2022-11-03T13:48:53;97743.38;;;15.77;100.00
52983;BME280;48698;45.736;13.926;2022-11-03T13:54:17;97790.69;;;15.89;100.00
52983;BME280;48698;45.736;13.926;2022-11-03T13:59:40;97803.88;;;15.80;100.00
52983;BME280;48698;45.736;13.926;2022-11-03T14:04:44;97585.47;;;14.37;100.00
52983;BME280;48698;45.736;13.926;2022-11-03T14:09:49;97806.22;;;15.59;100.00
52983;BME280;48698;45.736;13.926;2022-11-03T14:14:53;97777.75;;;15.31;100.00
52983;BME280;48698;45.736;13.926;2022-11-03T14:19:56;97813.72;;;15.67;100.00
52983;BME280;48698;45.736;13.926;2022-11-03T14:25:06;97744.16;;;15.27;100.00
52983;BME280;48698;45.736;13.926;2022-11-03T14:30:11;97749.53;;;15.40;100.00
52983;BME280;48698;45.736;13.926;2022-11-03T14:35:14;97809.97;;;15.69;100.00
52983;BME280;48698;45.736;13.926;2022-11-03T14:40:18;97672.72;;;14.77;100.00
52983;BME280;48698;45.736;13.926;2022-11-03T14:45:40;97735.34;;;15.13;100.00
52983;BME280;48698;45.736;13.926;2022-11-03T14:50:44;97797.56;;;15.29;100.00
52983;BME280;48698;45.736;13.926;2022-11-03T14:55:47;97638.69;;;14.40;100.00
52983;BME280;48698;45.736;13.926;2022-11-03T15:00:51;97658.34;;;14.39;100.00
52983;BME280;48698;45.736;13.926;2022-11-03T15:06:05;97797.53;;;15.16;100.00
52983;BME280;48698;45.736;13.926;2022-11-03T15:11:09;97710.41;;;14.60;100.00
52983;BME280;48698;45.736;13.926;2022-11-03T15:16:13;97684.03;;;14.41;100.00
52983;BME280;48698;45.736;13.926;2022-11-03T15:21:16;97624.66;;;14.10;100.00
52983;BME280;48698;45.736;13.926;2022-11-03T15:26:20;97745.34;;;14.57;100.00
52983;BME280;48698;45.736;13.926;2022-11-03T15:31:33;97624.16;;;13.90;100.00
52983;BME280;48698;45.736;13.926;2022-11-03T15:36:37;97676.47;;;14.07;100.00
52983;BME280;48698;45.736;13.926;2022-11-03T15:41:41;97601.53;;;13.55;100.00
52983;BME280;48698;45.736;13.926;2022-11-03T15:46:44;97744.63;;;14.41;100.00
52983;BME280;48698;45.736;13.926;2022-11-03T15:51:48;97742.50;;;14.32;100.00
52983;BME280;48698;45.736;13.926;2022-11-03T15:56:52;97774.09;;;14.25;100.00
52983;BME280;48698;45.736;13.926;2022-11-03T16:01:55;97765.16;;;14.40;100.00
52983;BME280;48698;45.736;13.926;2022-11-03T16:07:19;97765.34;;;14.37;100.00
52983;BME280;48698;45.736;13.926;2022-11-03T16:12:32;97738.16;;;14.17;100.00
52983;BME280;48698;45.736;13.926;2022-11-03T16:17:36;97688.81;;;13.53;100.00
52983;BME280;48698;45.736;13.926;2022-11-03T16:22:46;97737.25;;;13.75;100.00
52983;BME280;48698;45.736;13.926;2022-11-03T16:27:50;97665.59;;;13.55;100.00
52983;BME280;48698;45.736;13.926;2022-11-03T16:32:54;97747.34;;;13.84;100.00
52983;BME280;48698;45.736;13.926;2022-11-03T16:37:58;97586.25;;;12.86;100.00
52983;BME280;48698;45.736;13.926;2022-11-03T16:43:01;97744.75;;;13.83;100.00
52983;BME280;48698;45.736;13.926;2022-11-03T16:48:05;97714.44;;;13.70;100.00
52983;BME280;48698;45.736;13.926;2022-11-03T16:53:09;97727.41;;;13.76;100.00
52983;BME280;48698;45.736;13.926;2022-11-03T16:58:13;97581.91;;;12.85;100.00
52983;BME280;48698;45.736;13.926;2022-11-03T17:03:16;97695.28;;;13.49;100.00
52983;BME280;48698;45.736;13.926;2022-11-03T17:08:20;97684.06;;;13.44;100.00
52983;BME280;48698;45.736;13.926;2022-11-03T17:13:43;97679.69;;;13.29;100.00
52983;BME280;48698;45.736;13.926;2022-11-03T17:18:47;97690.16;;;13.60;100.00
52983;BME280;48698;45.736;13.926;2022-11-03T17:23:50;97694.25;;;13.37;100.00
52983;BME280;48698;45.736;13.926;2022-11-03T17:28:54;97667.94;;;13.31;100.00
52983;BME280;48698;45.736;13.926;2022-11-03T17:33:59;97598.47;;;12.90;100.00
52983;BME280;48698;45.736;13.926;2022-11-03T17:39:03;97579.25;;;12.85;100.00
52983;BME280;48698;45.736;13.926;2022-11-03T17:44:10;97721.88;;;13.79;100.00
52983;BME280;48698;45.736;13.926;2022-11-03T17:49:15;97634.13;;;13.18;100.00
52983;BME280;48698;45.736;13.926;2022-11-03T17:54:18;97639.72;;;12.99;100.00
52983;BME280;48698;45.736;13.926;2022-11-03T17:59:22;97576.44;;;12.59;100.00
52983;BME280;48698;45.736;13.926;2022-11-03T18:04:26;97693.09;;;13.27;100.00
52983;BME280;48698;45.736;13.926;2022-11-03T18:09:29;97632.09;;;13.07;100.00
52983;BME280;48698;45.736;13.926;2022-11-03T18:14:33;97651.34;;;13.26;100.00
52983;BME280;48698;45.736;13.926;2022-11-03T18:19:43;97650.22;;;13.44;100.00
52983;BME280;48698;45.736;13.926;2022-11-03T18:24:48;97579.03;;;13.03;100.00
52983;BME280;48698;45.736;13.926;2022-11-03T18:29:53;97625.84;;;13.22;100.00
52983;BME280;48698;45.736;13.926;2022-11-03T18:34:57;97636.34;;;13.25;100.00
52983;BME280;48698;45.736;13.926;2022-11-03T18:40:12;97618.00;;;13.05;100.00
52983;BME280;48698;45.736;13.926;2022-11-03T18:45:17;97638.69;;;13.30;100.00
52983;BME280;48698;45.736;13.926;2022-11-03T18:50:21;97611.03;;;13.03;100.00
52983;BME280;48698;45.736;13.926;2022-11-03T18:55:25;97597.09;;;13.27;100.00
52983;BME280;48698;45.736;13.926;2022-11-03T19:00:28;97595.28;;;13.28;100.00
52983;BME280;48698;45.736;13.926;2022-11-03T19:05:32;97557.00;;;13.29;100.00
52983;BME280;48698;45.736;13.926;2022-11-03T19:10:41;97585.41;;;13.57;100.00
52983;BME280;48698;45.736;13.926;2022-11-03T19:15:44;97451.13;;;12.74;100.00
52983;BME280;48698;45.736;13.926;2022-11-03T19:20:50;97454.66;;;12.61;100.00
52983;BME280;48698;45.736;13.926;2022-11-03T19:25:56;97418.50;;;12.42;100.00
52983;BME280;48698;45.736;13.926;2022-11-03T19:31:01;97549.84;;;13.15;100.00
52983;BME280;48698;45.736;13.926;2022-11-03T19:36:05;97511.38;;;13.05;100.00
52983;BME280;48698;45.736;13.926;2022-11-03T19:41:13;97503.66;;;12.72;100.00
52983;BME280;48698;45.736;13.926;2022-11-03T19:46:37;97542.31;;;13.08;100.00
52983;BME280;48698;45.736;13.926;2022-11-03T19:51:43;97413.25;;;12.13;100.00
52983;BME280;48698;45.736;13.926;2022-11-03T19:56:47;97387.47;;;12.13;100.00
52983;BME280;48698;45.736;13.926;2022-11-03T20:01:51;97494.31;;;12.79;100.00
52983;BME280;48698;45.736;13.926;2022-11-03T20:06:55;97502.50;;;12.90;100.00
52983;BME280;48698;45.736;13.926;2022-11-03T20:12:02;97537.34;;;13.16;100.00
52983;BME280;48698;45.736;13.926;2022-11-03T20:17:12;97421.66;;;12.49;100.00
52983;BME280;48698;45.736;13.926;2022-11-03T20:22:21;97521.56;;;12.99;100.00
52983;BME280;48698;45.736;13.926;2022-11-03T20:27:29;97479.97;;;12.82;100.00
52983;BME280;48698;45.736;13.926;2022-11-03T20:32:34;97326.06;;;12.02;100.00
52983;BME280;48698;45.736;13.926;2022-11-03T20:37:38;97448.06;;;12.94;100.00
52983;BME280;48698;45.736;13.926;2022-11-03T20:42:42;97417.88;;;12.94;100.00
52983;BME280;48698;45.736;13.926;2022-11-03T20:47:46;97431.88;;;13.12;100.00
52983;BME280;48698;45.736;13.926;2022-11-03T20:52:51;97449.19;;;13.19;100.00
52983;BME280;48698;45.736;13.926;2022-11-03T20:57:55;97445.88;;;13.15;100.00
52983;BME280;48698;45.736;13.926;2022-11-03T21:02:58;97382.38;;;12.79;100.00
52983;BME280;48698;45.736;13.926;2022-11-03T21:08:02;97388.69;;;12.92;100.00
52983;BME280;48698;45.736;13.926;2022-11-03T21:13:16;97238.34;;;12.01;100.00
52983;BME280;48698;45.736;13.926;2022-11-03T21:18:20;97389.34;;;12.82;100.00
52983;BME280;48698;45.736;13.926;2022-11-03T21:23:42;97378.25;;;12.61;100.00
52983;BME280;48698;45.736;13.926;2022-11-03T21:28:46;97379.19;;;12.74;100.00
52983;BME280;48698;45.736;13.926;2022-11-03T21:33:49;97370.25;;;12.75;100.00
52983;BME280;48698;45.736;13.926;2022-11-03T21:38:53;97207.75;;;11.65;100.00
52983;BME280;48698;45.736;13.926;2022-11-03T21:43:57;97206.53;;;11.71;100.00
52983;BME280;48698;45.736;13.926;2022-11-03T21:49:18;97289.81;;;12.42;100.00
52983;BME280;48698;45.736;13.926;2022-11-03T21:54:41;97336.75;;;12.71;100.00
52983;BME280;48698;45.736;13.926;2022-11-03T21:59:49;97291.47;;;12.57;100.00
52983;BME280;48698;45.736;13.926;2022-11-03T22:04:52;97275.31;;;12.60;100.00
52983;BME280;48698;45.736;13.926;2022-11-03T22:09:57;97333.88;;;13.15;100.00
52983;BME280;48698;45.736;13.926;2022-11-03T22:15:01;97283.31;;;12.87;100.00
52983;BME280;48698;45.736;13.926;2022-11-03T22:20:23;97260.78;;;12.78;100.00
52983;BME280;48698;45.736;13.926;2022-11-03T22:25:46;97253.91;;;12.88;100.00
52983;BME280;48698;45.736;13.926;2022-11-03T22:31:08;97201.34;;;12.51;100.00
52983;BME280;48698;45.736;13.926;2022-11-03T22:36:31;97291.09;;;13.17;100.00
52983;BME280;48698;45.736;13.926;2022-11-03T22:41:34;97261.25;;;13.12;100.00
52983;BME280;48698;45.736;13.926;2022-11-03T22:46:56;97137.16;;;12.41;100.00
52983;BME280;48698;45.736;13.926;2022-11-03T22:51:59;97164.00;;;12.65;100.00
52983;BME280;48698;45.736;13.926;2022-11-03T22:57:03;97149.84;;;12.38;100.00
52983;BME280;48698;45.736;13.926;2022-11-03T23:02:07;97143.19;;;12.31;100.00
52983;BME280;48698;45.736;13.926;2022-11-03T23:07:11;97224.16;;;12.94;100.00
52983;BME280;48698;45.736;13.926;2022-11-03T23:12:14;97083.94;;;12.15;100.00
52983;BME280;48698;45.736;13.926;2022-11-03T23:17:18;97122.56;;;12.34;100.00
52983;BME280;48698;45.736;13.926;2022-11-03T23:22:21;97157.69;;;12.66;100.00
52983;BME280;48698;45.736;13.926;2022-11-03T23:27:27;97146.50;;;12.74;100.00
52983;BME280;48698;45.736;13.926;2022-11-03T23:32:30;97120.13;;;12.44;100.00
52983;BME280;48698;45.736;13.926;2022-11-03T23:37:34;97171.22;;;12.63;100.00
52983;BME280;48698;45.736;13.926;2022-11-03T23:42:38;97150.25;;;12.71;100.00
52983;BME280;48698;45.736;13.926;2022-11-03T23:47:42;96999.25;;;11.95;100.00
52983;BME280;48698;45.736;13.926;2022-11-03T23:53:05;97132.69;;;13.07;100.00
52983;BME280;48698;45.736;13.926;2022-11-03T23:58:08;96924.94;;;11.91;100.00
